Time;durP1;ratioP1;P1;durP2;ratioP2;P2;SDS_P1;SDS_P2;PMS_P1;PMS_P2;Temp;Humidity;BMP_temperature;BMP_pressure;BME280_temperature;BME280_humidity;BME280_pressure;Samples;Min_cycle;Max_cycle;Signal;HPM_P1;HPM_P2
2021/03/18 00:00:37;;;;;;;22.35;9.33;;;;;;;3.49;72.95;99047.80;1690511;83;21553;-56
2021/03/18 00:03:05;;;;;;;16.67;8.63;;;;;;;3.48;73.08;99044.73;1691330;83;21637;-56
2021/03/18 00:09:01;;;;;;;22.90;9.18;;;;;;;3.48;73.27;99042.93;1785797;78;22271;-56
2021/03/18 00:11:29;;;;;;;21.70;8.88;;;;;;;3.40;73.40;99047.63;1780525;78;20982;-56
2021/03/18 00:13:57;;;;;;;15.95;8.68;;;;;;;3.37;73.47;99054.41;1758370;79;22409;-56
2021/03/18 00:16:25;;;;;;;15.75;9.10;;;;;;;3.34;73.57;99055.83;1760125;79;21013;-57
2021/03/18 00:18:54;;;;;;;23.90;9.28;;;;;;;3.33;73.69;99054.95;1760037;79;20986;-58
2021/03/18 00:21:22;;;;;;;20.75;9.25;;;;;;;3.33;73.74;99058.08;1759613;79;21151;-59
2021/03/18 00:23:52;;;;;;;21.15;9.88;;;;;;;3.32;73.79;99055.02;1760294;79;21255;-57
2021/03/18 00:26:24;;;;;;;27.02;10.05;;;;;;;3.31;73.84;99049.28;1759789;79;21392;-58
2021/03/18 00:29:00;;;;;;;21.57;10.10;;;;;;;3.36;73.92;99054.00;1810888;77;22887;-57
2021/03/18 00:31:31;;;;;;;22.67;9.65;;;;;;;3.29;74.02;99042.64;1787317;78;21521;-52
2021/03/18 00:33:59;;;;;;;23.92;9.70;;;;;;;3.29;74.05;99046.64;1789612;79;22192;-51
2021/03/18 00:36:28;;;;;;;21.27;10.05;;;;;;;3.28;74.11;99044.03;1792284;79;21450;-49
2021/03/18 00:38:58;;;;;;;19.73;9.25;;;;;;;3.27;74.18;99042.30;1787482;79;21605;-51
2021/03/18 00:41:26;;;;;;;26.30;10.15;;;;;;;3.29;74.12;99048.44;1789542;79;21088;-59
2021/03/18 00:43:54;;;;;;;32.98;9.90;;;;;;;3.28;74.05;99045.37;1786017;79;21049;-59
2021/03/18 00:46:24;;;;;;;19.48;10.08;;;;;;;3.30;73.92;99055.08;1775118;79;21359;-59
2021/03/18 00:48:53;;;;;;;26.37;10.55;;;;;;;3.31;73.92;99045.28;1790414;78;20965;-58
2021/03/18 00:51:22;;;;;;;24.37;9.73;;;;;;;3.30;73.96;99038.18;1789707;79;21009;-57
2021/03/18 00:53:52;;;;;;;20.88;9.63;;;;;;;3.33;73.91;99048.75;1793063;79;21002;-59
2021/03/18 00:56:21;;;;;;;19.98;9.50;;;;;;;3.32;73.94;99039.02;1788072;78;21577;-58
2021/03/18 00:58:59;;;;;;;27.62;10.28;;;;;;;3.38;73.78;99037.02;1806914;78;22757;-59
2021/03/18 01:01:28;;;;;;;20.90;10.13;;;;;;;3.36;73.70;99046.88;1766111;79;21427;-59
2021/03/18 01:03:57;;;;;;;23.85;9.25;;;;;;;3.37;73.67;99043.75;1753717;79;21564;-59
2021/03/18 01:06:29;;;;;;;29.65;9.98;;;;;;;3.39;73.63;99043.22;1756289;80;21542;-63
2021/03/18 01:08:59;;;;;;;23.05;9.10;;;;;;;3.40;73.56;99044.95;1758312;80;21522;-59
2021/03/18 01:11:30;;;;;;;18.40;10.13;;;;;;;3.41;73.45;99042.27;1755733;79;20982;-60
2021/03/18 01:14:01;;;;;;;21.12;8.93;;;;;;;3.39;73.32;99037.89;1751830;80;20978;-59
2021/03/18 01:16:50;;;;;;;24.57;9.43;;;;;;;3.36;73.16;99040.67;1750704;79;22204;-59
2021/03/18 01:19:21;;;;;;;21.77;9.03;;;;;;;3.34;72.93;99033.17;1752252;79;21021;-59
2021/03/18 01:21:52;;;;;;;24.32;9.40;;;;;;;3.32;72.67;99035.03;1751681;80;21056;-57
2021/03/18 01:24:20;;;;;;;28.62;9.50;;;;;;;3.31;72.43;99031.95;1754394;79;21099;-58
2021/03/18 01:26:48;;;;;;;20.00;8.48;;;;;;;3.29;72.13;99029.78;1754403;79;20989;-57
2021/03/18 01:29:16;;;;;;;24.52;9.20;;;;;;;3.28;71.90;99031.58;1752215;80;21600;-57
2021/03/18 01:31:44;;;;;;;21.65;9.10;;;;;;;3.25;71.82;99022.80;1762127;79;21132;-58
2021/03/18 01:34:12;;;;;;;19.95;8.58;;;;;;;3.25;71.79;99029.47;1753904;80;21116;-58
2021/03/18 01:36:41;;;;;;;25.90;9.08;;;;;;;3.27;71.68;99035.64;1754627;79;21033;-57
2021/03/18 01:39:09;;;;;;;19.82;8.83;;;;;;;3.28;71.24;99032.05;1755385;79;21152;-59
2021/03/18 01:41:36;;;;;;;19.45;8.38;;;;;;;3.29;71.09;99032.45;1754505;79;22262;-58
2021/03/18 01:44:05;;;;;;;24.02;10.08;;;;;;;3.29;71.16;99039.11;1758477;80;21018;-52
2021/03/18 01:46:34;;;;;;;20.00;9.60;;;;;;;3.28;70.90;99037.38;1756582;79;21016;-52
2021/03/18 01:49:03;;;;;;;27.22;9.38;;;;;;;3.29;70.85;99039.11;1757956;80;21137;-54
2021/03/18 01:51:31;;;;;;;19.70;8.65;;;;;;;3.29;70.94;99028.45;1756231;79;20953;-54
2021/03/18 01:53:59;;;;;;;27.55;9.33;;;;;;;3.25;70.97;99025.04;1754022;80;21373;-54
2021/03/18 01:56:27;;;;;;;30.20;9.68;;;;;;;3.24;70.80;99031.72;1758599;79;21100;-53
2021/03/18 01:58:56;;;;;;;28.05;9.75;;;;;;;3.25;70.60;99029.47;1744359;80;21911;-53
2021/03/18 02:01:24;;;;;;;18.73;8.03;;;;;;;3.23;70.54;99023.33;1737947;81;21113;-53
2021/03/18 02:03:52;;;;;;;21.70;8.95;;;;;;;3.24;70.41;99041.05;1744308;79;21129;-53
2021/03/18 02:06:20;;;;;;;23.12;8.73;;;;;;;3.21;70.47;99026.52;1744189;79;22288;-51
2021/03/18 02:08:48;;;;;;;27.17;8.65;;;;;;;3.20;70.31;99031.44;1723012;80;21002;-60
2021/03/18 02:11:16;;;;;;;22.00;8.35;;;;;;;3.17;70.19;99039.52;1737752;79;21006;-59
2021/03/18 02:13:44;;;;;;;18.57;7.92;;;;;;;3.15;70.40;99035.11;1740815;79;20977;-59
2021/03/18 02:16:13;;;;;;;20.92;8.23;;;;;;;3.14;70.31;99033.37;1746060;81;21148;-52
2021/03/18 02:18:57;;;;;;;18.75;8.08;;;;;;;3.13;70.20;99039.59;1739124;79;21164;-52
2021/03/18 02:21:53;;;;;;;22.70;8.13;;;;;;;3.12;69.97;99039.19;1740569;81;21113;-50
2021/03/18 02:24:51;;;;;;;15.93;7.10;;;;;;;3.09;70.06;99035.31;1742237;79;21160;-52
2021/03/18 02:28:04;;;;;;;24.57;8.55;;;;;;;3.07;70.04;99050.45;1747764;79;21018;-57
2021/03/18 02:31:06;;;;;;;18.27;6.95;;;;;;;3.06;70.19;99047.84;1710573;80;21612;-50
2021/03/18 02:34:04;;;;;;;19.65;7.83;;;;;;;3.11;70.54;99035.25;1808711;78;22770;-50
2021/03/18 02:36:35;;;;;;;;;;;;;;;3.07;70.63;99041.13;1804237;79;21598;-51
2021/03/18 02:39:07;;;;;;;13.83;6.80;;;;;;;3.08;70.73;99038.87;1751308;80;21363;-50
2021/03/18 02:41:40;;;;;;;19.95;7.20;;;;;;;3.07;70.56;99043.79;1783672;78;21100;-56
2021/03/18 02:44:22;;;;;;;16.73;6.45;;;;;;;3.03;69.78;99039.47;1781899;78;21032;-64
2021/03/18 02:47:05;;;;;;;15.48;7.37;;;;;;;3.07;69.99;99045.12;1824534;77;22770;-57
2021/03/18 02:49:37;;;;;;;16.65;6.30;;;;;;;3.04;69.96;99047.90;1723524;81;21089;-57
2021/03/18 02:52:06;;;;;;;19.85;6.37;;;;;;;3.03;69.84;99048.80;1786479;78;21354;-57
2021/03/18 02:54:34;;;;;;;24.52;7.83;;;;;;;3.03;69.68;99050.13;1728968;81;21033;-57
2021/03/18 02:57:05;;;;;;;18.07;7.25;;;;;;;3.00;69.46;99054.23;1722996;80;21038;-58
2021/03/18 02:59:39;;;;;;;26.30;6.90;;;;;;;2.96;69.57;99065.89;1796204;78;21120;-59
2021/03/18 03:02:11;;;;;;;15.25;6.65;;;;;;;2.95;69.67;99065.95;1728169;81;20945;-58
2021/03/18 03:04:39;;;;;;;21.62;7.65;;;;;;;2.93;69.73;99068.67;1786370;78;21395;-58
2021/03/18 03:07:07;;;;;;;15.20;7.70;;;;;;;2.92;69.78;99060.70;1721064;81;21004;-58
2021/03/18 03:09:35;;;;;;;18.67;7.22;;;;;;;2.91;69.88;99063.83;1787635;78;21005;-58
2021/03/18 03:12:05;;;;;;;20.17;7.60;;;;;;;2.89;69.98;99065.67;1723629;81;21587;-57
2021/03/18 03:14:33;;;;;;;19.05;7.97;;;;;;;2.88;70.07;99067.93;1798980;78;21189;-60
2021/03/18 03:17:01;;;;;;;13.55;6.75;;;;;;;2.86;70.18;99057.77;1723647;81;22108;-58
2021/03/18 03:19:30;;;;;;;23.40;8.55;;;;;;;2.85;70.34;99064.02;1787323;78;20959;-57
2021/03/18 03:21:57;;;;;;;26.12;7.35;;;;;;;2.85;70.47;99066.68;1721262;81;21012;-59
2021/03/18 03:24:27;;;;;;;23.77;7.47;;;;;;;2.84;70.52;99062.28;1787510;78;21549;-58
2021/03/18 03:26:55;;;;;;;19.07;7.47;;;;;;;2.84;70.51;99061.81;1724012;82;21577;-57
2021/03/18 03:29:23;;;;;;;21.97;6.90;;;;;;;2.83;70.60;99067.20;1759178;78;21387;-57
2021/03/18 03:31:51;;;;;;;19.57;6.37;;;;;;;2.80;70.73;99068.60;1722178;81;21127;-58
2021/03/18 03:34:19;;;;;;;20.68;6.70;;;;;;;2.78;70.87;99077.11;1787529;78;21041;-57
2021/03/18 03:36:48;;;;;;;19.85;7.40;;;;;;;2.79;70.97;99076.19;1726270;81;20965;-57
2021/03/18 03:39:16;;;;;;;17.90;6.80;;;;;;;2.76;71.07;99088.24;1787123;78;21524;-50
2021/03/18 03:41:44;;;;;;;25.15;8.18;;;;;;;2.74;71.25;99082.10;1787094;78;22230;-51
2021/03/18 03:44:12;;;;;;;22.13;7.25;;;;;;;2.73;71.41;99084.36;1723378;81;21008;-56
2021/03/18 03:46:40;;;;;;;20.88;6.92;;;;;;;2.72;71.45;99089.27;1787753;78;21215;-57
2021/03/18 03:49:09;;;;;;;20.35;6.42;;;;;;;2.72;71.43;99082.62;1726032;82;21059;-58
2021/03/18 03:51:58;;;;;;;22.02;7.10;;;;;;;2.70;71.48;99081.77;1793608;78;20970;-57
2021/03/18 03:54:26;;;;;;;15.88;6.05;;;;;;;2.69;71.60;99085.36;1722777;81;21381;-57
2021/03/18 03:57:02;;;;;;;22.82;6.78;;;;;;;2.68;71.71;99082.28;1787973;78;21612;-57
2021/03/18 03:59:31;;;;;;;10.55;5.60;;;;;;;2.68;71.82;99086.28;1785725;78;21526;-59
2021/03/18 04:01:59;;;;;;;17.20;6.47;;;;;;;2.66;71.90;99088.96;1724472;82;21145;-57
2021/03/18 04:04:38;;;;;;;19.98;7.40;;;;;;;2.63;71.94;99089.94;1785489;78;21308;-57
2021/03/18 04:07:17;;;;;;;17.80;6.17;;;;;;;2.61;72.10;99089.13;1725711;81;21439;-56
2021/03/18 04:09:45;;;;;;;13.78;6.40;;;;;;;2.63;72.15;99092.60;1786676;78;21175;-56
2021/03/18 04:12:15;;;;;;;14.43;6.47;;;;;;;2.65;71.97;99097.00;1727264;81;21714;-56
2021/03/18 04:14:59;;;;;;;19.87;6.50;;;;;;;2.65;71.98;99110.31;1786799;78;20997;-56
2021/03/18 04:17:27;;;;;;;18.55;6.47;;;;;;;2.62;72.06;99104.17;1798148;78;21901;-58
2021/03/18 04:19:57;;;;;;;21.57;7.20;;;;;;;2.62;72.16;99104.17;1725120;82;21486;-57
2021/03/18 04:22:27;;;;;;;21.57;7.17;;;;;;;2.61;72.27;99110.42;1736713;78;21192;-57
2021/03/18 04:24:55;;;;;;;15.98;5.85;;;;;;;2.59;72.33;99098.92;1697811;82;21141;-58
2021/03/18 04:27:23;;;;;;;20.82;7.12;;;;;;;2.60;72.35;99100.66;1791801;78;21152;-57
2021/03/18 04:29:51;;;;;;;17.92;7.78;;;;;;;2.60;72.41;99097.12;1692463;82;21020;-58
2021/03/18 04:32:19;;;;;;;17.48;7.62;;;;;;;2.62;72.43;99096.19;1790229;78;21200;-57
2021/03/18 04:34:51;;;;;;;18.93;6.17;;;;;;;2.65;72.41;99098.33;1721992;81;21186;-58
2021/03/18 04:37:19;;;;;;;21.10;6.33;;;;;;;2.63;72.56;99096.59;1786698;78;21750;-57
2021/03/18 04:39:47;;;;;;;20.75;7.92;;;;;;;2.62;72.66;99106.83;1721338;81;21044;-58
2021/03/18 04:42:15;;;;;;;14.07;6.83;;;;;;;2.62;72.72;99108.16;1787218;78;21099;-58
2021/03/18 04:44:47;;;;;;;15.18;6.92;;;;;;;2.60;73.01;99113.09;1721125;82;21357;-59
2021/03/18 04:47:18;;;;;;;15.95;7.30;;;;;;;2.55;73.08;99105.23;1786541;78;20970;-60
2021/03/18 04:49:46;;;;;;;;;;;;;;;2.54;73.45;99111.48;1698252;81;21130;-60
2021/03/18 04:52:15;;;;;;;16.05;7.40;;;;;;;2.50;74.47;99108.95;1721731;81;20251;-52
2021/03/18 04:54:43;;;;;;;26.35;8.83;;;;;;;2.47;74.94;99117.91;1792844;78;21165;-51
2021/03/18 04:57:12;;;;;;;19.15;7.37;;;;;;;2.46;75.96;99126.81;1712789;82;21196;-52
2021/03/18 04:59:41;;;;;;;22.85;8.33;;;;;;;2.45;76.09;99125.07;1763166;78;21029;-51
2021/03/18 05:02:09;;;;;;;18.95;6.92;;;;;;;2.46;76.29;99125.48;1721821;81;20997;-51
2021/03/18 05:04:37;;;;;;;11.75;7.22;;;;;;;2.48;76.78;99132.08;1793747;78;20977;-51
2021/03/18 05:07:05;;;;;;;19.75;8.33;;;;;;;2.46;76.96;99125.94;1722461;81;21152;-55
2021/03/18 05:09:33;;;;;;;20.17;8.23;;;;;;;2.46;77.36;99132.13;1787482;78;21199;-54
2021/03/18 05:12:02;;;;;;;16.95;8.63;;;;;;;2.50;78.24;99127.12;1725566;81;21533;-52
2021/03/18 05:14:30;;;;;;;19.73;8.85;;;;;;;2.50;78.76;99131.11;1788171;78;21001;-53
2021/03/18 05:16:58;;;;;;;18.55;9.80;;;;;;;2.51;79.50;99124.89;1725185;81;21166;-50
2021/03/18 05:19:27;;;;;;;18.67;9.78;;;;;;;2.50;80.31;99129.78;1786973;78;21169;-51
2021/03/18 05:21:55;;;;;;;20.00;9.80;;;;;;;2.52;80.61;99128.42;1723508;82;21377;-54
2021/03/18 05:24:23;;;;;;;24.27;10.98;;;;;;;2.55;81.23;99141.17;1791036;78;21690;-51
2021/03/18 05:26:51;;;;;;;25.15;10.25;;;;;;;2.56;82.26;99138.95;1789685;78;21116;-51
2021/03/18 05:29:19;;;;;;;20.37;11.28;;;;;;;2.52;82.92;99131.95;1792803;78;21136;-52
2021/03/18 05:31:47;;;;;;;22.40;11.80;;;;;;;2.52;83.69;99131.09;1790551;78;21546;-52
2021/03/18 05:34:15;;;;;;;16.32;10.68;;;;;;;2.52;84.04;99137.28;1791431;78;21707;-52
2021/03/18 05:36:45;;;;;;;22.30;11.90;;;;;;;2.51;84.44;99136.88;1793484;78;21029;-54
2021/03/18 05:39:13;;;;;;;17.67;10.70;;;;;;;2.56;84.73;99146.94;1726568;80;21115;-55
2021/03/18 05:41:41;;;;;;;17.00;9.23;;;;;;;2.55;84.88;99146.49;1789019;78;21553;-50
2021/03/18 05:44:09;;;;;;;19.73;11.73;;;;;;;2.61;85.07;99144.15;1724976;81;21032;-53
2021/03/18 05:46:38;;;;;;;24.05;11.57;;;;;;;2.63;85.24;99153.82;1792453;78;21419;-52
2021/03/18 05:49:07;;;;;;;30.60;12.18;;;;;;;2.67;85.16;99153.75;1701981;81;21167;-56
2021/03/18 05:51:36;;;;;;;28.73;11.85;;;;;;;2.72;85.18;99155.83;1757711;80;21021;-53
2021/03/18 05:54:05;;;;;;;24.37;10.58;;;;;;;2.78;85.30;99168.96;1756500;80;21565;-56
2021/03/18 05:56:33;;;;;;;21.68;11.85;;;;;;;2.84;85.27;99159.47;1756850;80;21565;-52
2021/03/18 05:59:01;;;;;;;22.67;11.90;;;;;;;2.88;85.12;99147.81;1757393;80;22294;-57
2021/03/18 06:01:29;;;;;;;19.57;10.38;;;;;;;2.93;84.81;99158.31;1758120;80;21017;-54
2021/03/18 06:03:58;;;;;;;21.95;11.53;;;;;;;2.96;84.48;99164.42;1757526;80;21601;-54
2021/03/18 06:06:26;;;;;;;23.25;11.22;;;;;;;3.00;84.45;99159.89;1754889;80;20985;-58
2021/03/18 06:08:54;;;;;;;17.82;10.10;;;;;;;3.01;84.31;99158.97;1759598;80;21498;-56
2021/03/18 06:11:22;;;;;;;30.00;12.30;;;;;;;3.01;83.94;99178.48;1758173;80;21931;-57
2021/03/18 06:13:52;;;;;;;23.80;11.10;;;;;;;3.05;83.86;99169.50;1754607;80;21065;-52
2021/03/18 06:16:21;;;;;;;22.30;11.22;;;;;;;3.07;83.82;99174.77;1755126;80;21080;-52
2021/03/18 06:18:50;;;;;;;24.63;11.10;;;;;;;3.07;83.89;99162.33;1754471;80;21013;-51
2021/03/18 06:21:18;;;;;;;29.45;10.70;;;;;;;3.18;83.86;99169.13;1757793;80;21121;-53
2021/03/18 06:24:01;;;;;;;35.63;11.78;;;;;;;3.26;83.53;99181.78;1754767;80;21376;-52
2021/03/18 06:26:35;;;;;;;20.62;11.43;;;;;;;3.30;82.54;99174.08;1754167;80;21120;-51
2021/03/18 06:29:05;;;;;;;22.65;10.30;;;;;;;3.30;82.34;99179.41;1759587;80;21184;-52
2021/03/18 06:31:33;;;;;;;23.35;10.75;;;;;;;3.32;81.93;99180.25;1758055;80;21147;-51
2021/03/18 06:34:02;;;;;;;33.08;11.28;;;;;;;3.32;82.08;99180.25;1730793;80;21155;-52
2021/03/18 06:36:32;;;;;;;23.52;11.50;;;;;;;3.36;82.03;99179.25;1728201;80;21394;-53
2021/03/18 06:39:08;;;;;;;26.02;12.10;;;;;;;3.46;81.93;99180.69;1730747;81;21665;-55
2021/03/18 06:41:43;;;;;;;24.52;12.07;;;;;;;3.57;81.58;99186.59;1756254;80;21002;-53
2021/03/18 06:44:27;;;;;;;19.77;10.75;;;;;;;3.64;80.92;99174.80;1725878;81;21017;-52
2021/03/18 06:47:07;;;;;;;22.90;11.20;;;;;;;3.65;80.85;99171.20;1729378;80;21180;-51
2021/03/18 06:49:37;;;;;;;26.17;12.00;;;;;;;3.67;81.26;99177.39;1738008;80;22253;-49
2021/03/18 06:52:08;;;;;;;22.85;13.55;;;;;;;3.71;82.28;99182.61;1732152;81;21062;-60
2021/03/18 06:54:43;;;;;;;20.48;11.75;;;;;;;3.74;82.31;99179.86;1737177;80;21144;-53
2021/03/18 06:57:12;;;;;;;27.35;13.50;;;;;;;3.75;82.37;99181.59;1757748;80;21055;-66
2021/03/18 06:59:42;;;;;;;28.57;12.47;;;;;;;3.75;82.38;99174.92;1731133;80;21701;-63
2021/03/18 07:02:17;;;;;;;32.50;12.70;;;;;;;3.74;82.50;99182.52;1735004;80;21686;-62
2021/03/18 07:04:51;;;;;;;23.02;12.65;;;;;;;3.75;82.48;99176.26;1730399;81;21170;-62
2021/03/18 07:10:00;;;;;;;21.20;11.90;;;;;;;3.76;82.52;99183.33;1820935;75;22730;-63
2021/03/18 07:12:31;;;;;;;31.10;13.13;;;;;;;3.68;82.62;99184.46;1797002;76;20987;-62
2021/03/18 07:17:37;;;;;;;29.25;15.15;;;;;;;3.78;82.84;99186.81;1741145;77;28034;-64
2021/03/18 07:20:19;;;;;;;31.37;14.58;;;;;;;3.80;82.95;99180.98;1729446;80;21861;-63
2021/03/18 07:22:50;;;;;;;25.02;12.58;;;;;;;3.89;82.97;99180.23;1724439;80;22289;-62
2021/03/18 07:25:25;;;;;;;28.02;13.13;;;;;;;4.00;83.01;99190.56;1727659;80;21577;-64
2021/03/18 07:27:55;;;;;;;29.25;12.63;;;;;;;3.99;82.46;99187.45;1719927;80;21005;-66
2021/03/18 07:30:32;;;;;;;33.35;13.88;;;;;;;4.03;81.98;99195.78;1722529;80;21002;-63
2021/03/18 07:33:00;;;;;;;25.27;13.95;;;;;;;4.04;82.13;99197.52;1726539;80;21500;-64
2021/03/18 07:35:29;;;;;;;42.70;14.68;;;;;;;3.99;82.46;99194.13;1725732;80;21399;-61
2021/03/18 07:38:02;;;;;;;28.55;13.93;;;;;;;4.02;82.29;99198.50;1725305;80;21081;-60
2021/03/18 07:40:35;;;;;;;30.57;13.83;;;;;;;4.03;82.28;99195.78;1729501;80;21014;-58
2021/03/18 07:43:08;;;;;;;30.27;12.73;;;;;;;4.02;81.78;99192.70;1729569;80;21122;-59
2021/03/18 07:45:36;;;;;;;28.05;14.05;;;;;;;3.99;81.70;99194.13;1727186;80;21226;-59
2021/03/18 07:48:06;;;;;;;29.02;16.25;;;;;;;3.96;81.95;99192.04;1693745;80;21397;-57
2021/03/18 07:50:34;;;;;;;34.75;16.77;;;;;;;3.96;82.17;99199.58;1725682;80;21140;-58
2021/03/18 07:53:03;;;;;;;30.43;15.28;;;;;;;3.96;82.19;99195.58;1725984;80;21187;-59
2021/03/18 07:55:32;;;;;;;20.90;12.82;;;;;;;4.02;81.92;99199.38;1722661;80;21980;-60
2021/03/18 07:58:00;;;;;;;27.35;13.70;;;;;;;4.05;81.62;99197.95;1725277;80;21593;-59
2021/03/18 08:00:32;;;;;;;19.05;11.85;;;;;;;4.08;81.67;99193.83;1725422;80;21203;-64
2021/03/18 08:03:25;;;;;;;34.48;13.55;;;;;;;4.23;81.39;99192.45;1865863;74;22627;-64
2021/03/18 08:05:54;;;;;;;24.67;13.18;;;;;;;4.18;80.95;99196.61;1837235;76;21021;-60
2021/03/18 08:08:35;;;;;;;22.73;12.88;;;;;;;4.13;80.83;99191.88;1773428;79;21576;-53
2021/03/18 08:11:11;;;;;;;34.20;14.58;;;;;;;4.14;81.06;99195.42;1771891;80;21093;-56
2021/03/18 08:13:41;;;;;;;27.93;13.15;;;;;;;4.16;80.68;99201.13;1778099;79;20935;-55
2021/03/18 08:16:30;;;;;;;24.45;13.15;;;;;;;4.22;80.28;99201.86;1770945;80;20945;-53
2021/03/18 08:19:00;;;;;;;24.20;12.07;;;;;;;4.25;79.33;99203.94;1777194;79;21029;-64
2021/03/18 08:21:45;;;;;;;22.93;11.97;;;;;;;4.30;79.00;99193.11;1769912;80;22105;-64
2021/03/18 08:24:23;;;;;;;25.85;12.90;;;;;;;4.34;78.92;99189.42;1779609;79;21018;-64
2021/03/18 08:27:04;;;;;;;26.50;12.20;;;;;;;4.40;78.91;99194.55;1743234;80;20966;-57
2021/03/18 08:29:46;;;;;;;25.43;13.10;;;;;;;4.54;78.61;99196.30;1847195;76;22789;-58
2021/03/18 08:32:31;;;;;;;24.35;11.70;;;;;;;4.57;78.31;99192.16;1813645;77;21054;-60
2021/03/18 08:35:06;;;;;;;20.05;12.20;;;;;;;4.60;77.28;99196.54;1821477;77;21276;-51
2021/03/18 08:37:41;;;;;;;26.07;12.20;;;;;;;4.57;76.98;99202.84;1757389;80;21081;-59
2021/03/18 08:40:24;;;;;;;19.48;11.53;;;;;;;4.52;77.26;99202.13;1755577;80;21858;-62
2021/03/18 08:42:53;;;;;;;20.60;10.68;;;;;;;4.46;77.22;99198.34;1787417;78;21455;-57
2021/03/18 08:45:27;;;;;;;22.20;11.75;;;;;;;4.51;77.14;99205.73;1785084;78;20947;-61
2021/03/18 08:47:59;;;;;;;25.25;11.93;;;;;;;4.56;76.50;99206.44;1772109;80;22061;-61
2021/03/18 08:50:31;;;;;;;;;;;;;;;4.59;76.16;99201.01;1737164;80;21077;-60
2021/03/18 08:53:00;;;;;;;17.37;10.68;;;;;;;4.59;76.36;99210.36;1787612;79;20276;-60
2021/03/18 08:55:42;;;;;;;23.32;11.53;;;;;;;4.59;75.25;99206.35;1783187;79;20974;-55
2021/03/18 08:58:11;;;;;;;20.60;10.80;;;;;;;4.66;74.46;99213.21;1786555;78;21080;-59
2021/03/18 09:00:42;;;;;;;19.40;9.23;;;;;;;4.69;74.04;99219.80;1782841;79;21373;-58
2021/03/18 09:03:17;;;;;;;22.48;9.33;;;;;;;4.69;72.96;99217.13;1786357;78;21521;-54
2021/03/18 09:06:10;;;;;;;18.85;9.43;;;;;;;4.80;73.13;99214.55;1824903;76;27432;-57
2021/03/18 09:08:39;;;;;;;22.30;9.73;;;;;;;4.79;73.14;99212.77;1821502;77;21391;-58
2021/03/18 09:11:07;;;;;;;16.60;10.10;;;;;;;4.79;72.89;99210.97;1824581;77;22820;-60
2021/03/18 09:13:36;;;;;;;25.20;11.10;;;;;;;4.87;73.57;99210.71;1823380;77;21060;-60
2021/03/18 09:16:06;;;;;;;14.93;8.78;;;;;;;4.95;73.61;99209.52;1827413;77;21588;-53
2021/03/18 09:18:35;;;;;;;19.30;10.23;;;;;;;5.03;72.90;99217.25;1767343;80;21240;-56
2021/03/18 09:21:09;;;;;;;19.60;10.15;;;;;;;4.99;72.72;99215.61;1763827;80;21486;-65
2021/03/18 09:23:41;;;;;;;18.02;10.50;;;;;;;4.97;72.45;99210.80;1768109;80;21210;-59
2021/03/18 09:26:12;;;;;;;22.20;11.03;;;;;;;4.98;72.65;99216.55;1766621;80;21152;-57
2021/03/18 09:28:46;;;;;;;16.55;9.80;;;;;;;4.99;72.93;99212.47;1769571;79;21026;-55
2021/03/18 09:31:14;;;;;;;21.50;10.43;;;;;;;5.05;73.39;99219.39;1755285;80;21641;-58
2021/03/18 09:33:44;;;;;;;17.07;9.73;;;;;;;5.09;73.24;99219.69;1770530;80;21006;-60
2021/03/18 09:36:23;;;;;;;20.77;10.90;;;;;;;5.06;72.73;99214.48;1757978;80;21466;-58
2021/03/18 09:39:11;;;;;;;14.18;9.58;;;;;;;5.04;72.47;99221.66;1769821;80;21026;-59
2021/03/18 09:41:46;;;;;;;17.27;8.35;;;;;;;5.05;72.75;99214.05;1769252;79;21002;-58
2021/03/18 09:44:22;;;;;;;17.02;8.40;;;;;;;5.12;71.72;99234.77;1770871;79;21141;-58
2021/03/18 09:46:54;;;;;;;19.98;9.50;;;;;;;5.12;70.21;99219.59;1762964;80;20975;-57
2021/03/18 09:49:38;;;;;;;15.68;7.90;;;;;;;5.12;70.30;99220.93;1858243;74;22693;-57
2021/03/18 09:52:17;;;;;;;19.20;8.08;;;;;;;5.11;69.46;99219.62;1843257;75;20951;-58
2021/03/18 09:54:46;;;;;;;12.53;7.25;;;;;;;5.07;69.07;99216.22;1835758;77;21025;-62
2021/03/18 09:57:14;;;;;;;15.78;6.90;;;;;;;5.09;69.19;99222.36;1756303;80;21598;-58
2021/03/18 09:59:43;;;;;;;13.95;8.43;;;;;;;5.10;68.44;99226.77;1767236;80;20982;-56
2021/03/18 10:02:12;;;;;;;18.77;9.38;;;;;;;5.10;69.24;99225.44;1803122;79;20966;-57
2021/03/18 10:04:41;;;;;;;16.00;8.48;;;;;;;5.09;70.28;99218.36;1754651;79;21048;-59
2021/03/18 10:07:11;;;;;;;11.25;6.45;;;;;;;5.11;70.70;99229.85;1797002;78;22250;-61
2021/03/18 10:09:42;;;;;;;13.13;6.70;;;;;;;5.03;69.28;99235.95;1797023;78;21562;-59
2021/03/18 10:12:14;;;;;;;12.53;5.95;;;;;;;4.97;69.39;99237.52;1796853;78;20978;-55
2021/03/18 10:14:53;;;;;;;14.23;6.60;;;;;;;4.90;68.74;99230.19;1758897;79;21128;-57
2021/03/18 10:17:26;;;;;;;17.73;5.97;;;;;;;4.89;68.27;99230.22;1770568;80;21176;-58
2021/03/18 10:20:11;;;;;;;11.50;5.22;;;;;;;4.91;67.97;99233.73;1802103;79;21664;-58
2021/03/18 10:23:01;;;;;;;9.13;4.85;;;;;;;4.93;66.77;99234.53;1802275;78;21124;-60
2021/03/18 10:25:38;;;;;;;12.28;5.37;;;;;;;4.99;65.74;99235.65;1860785;74;22973;-58
2021/03/18 10:28:13;;;;;;;8.95;5.00;;;;;;;4.92;64.96;99224.78;1803198;77;21596;-58
2021/03/18 10:30:50;;;;;;;11.70;5.35;;;;;;;4.97;65.19;99230.37;1811791;78;22019;-57
2021/03/18 10:33:26;;;;;;;10.00;5.20;;;;;;;4.93;64.94;99225.19;1751827;79;20977;-56
2021/03/18 10:35:59;;;;;;;12.07;5.53;;;;;;;4.89;64.87;99230.22;1751670;80;22255;-56
2021/03/18 10:38:38;;;;;;;12.55;5.00;;;;;;;4.87;64.42;99232.09;1753979;79;21430;-56
2021/03/18 10:41:14;;;;;;;9.80;4.83;;;;;;;4.87;64.48;99246.31;1757753;79;20977;-64
2021/03/18 10:43:44;;;;;;;8.80;4.22;;;;;;;4.83;63.92;99235.78;1753076;79;21065;-60
2021/03/18 10:46:16;;;;;;;7.95;4.78;;;;;;;4.82;64.21;99244.73;1758410;79;21057;-60
2021/03/18 10:51:27;;;;;;;7.47;4.17;;;;;;;4.83;63.93;99239.80;1808878;76;22777;-58
2021/03/18 10:53:58;;;;;;;7.30;4.60;;;;;;;4.81;63.15;99247.88;1759082;79;21566;-55
2021/03/18 10:56:28;;;;;;;10.75;4.50;;;;;;;4.83;62.40;99255.35;1760379;78;21332;-57
2021/03/18 10:59:20;;;;;;;10.28;4.92;;;;;;;4.81;61.71;99241.19;1758866;79;21033;-60
2021/03/18 11:01:49;;;;;;;9.83;4.00;;;;;;;4.79;61.56;99253.70;1761419;80;21119;-62
2021/03/18 11:04:18;;;;;;;12.10;4.00;;;;;;;4.75;61.21;99244.08;1761304;79;20965;-60
2021/03/18 11:06:49;;;;;;;7.83;4.70;;;;;;;4.73;61.45;99248.12;1757968;80;21462;-59
2021/03/18 11:09:19;;;;;;;13.60;3.83;;;;;;;4.73;61.21;99245.45;1764265;78;21198;-64
2021/03/18 11:11:57;;;;;;;11.48;4.20;;;;;;;4.76;60.58;99244.95;1761404;79;20954;-60
2021/03/18 11:17:05;;;;;;;8.30;4.17;;;;;;;4.87;60.14;99236.96;1825326;76;23278;-61
2021/03/18 11:19:33;;;;;;;16.50;5.53;;;;;;;4.85;60.27;99237.96;1724555;80;20988;-61
2021/03/18 11:22:05;;;;;;;9.78;4.97;;;;;;;4.87;61.22;99237.43;1788778;78;21631;-62
2021/03/18 11:24:33;;;;;;;12.80;7.15;;;;;;;4.91;61.60;99231.06;1728815;81;21013;-58
2021/03/18 11:27:03;;;;;;;11.80;6.40;;;;;;;4.96;61.88;99226.42;1787396;78;21036;-56
2021/03/18 11:29:34;;;;;;;12.58;7.87;;;;;;;5.03;62.67;99234.62;1789673;78;21977;-56
2021/03/18 11:32:10;;;;;;;15.58;8.63;;;;;;;5.14;65.21;99225.74;1834429;76;23305;-60
2021/03/18 11:34:40;;;;;;;24.07;8.83;;;;;;;5.14;66.00;99223.07;1742230;77;21470;-60
2021/03/18 11:37:10;;;;;;;19.82;9.23;;;;;;;5.14;66.97;99232.42;1818846;75;21351;-60
2021/03/18 11:39:39;;;;;;;13.72;9.80;;;;;;;5.14;67.29;99229.75;1818691;75;20934;-60
2021/03/18 11:42:07;;;;;;;15.63;7.83;;;;;;;5.09;67.84;99227.71;1819809;75;20997;-61
2021/03/18 11:44:35;;;;;;;16.67;8.35;;;;;;;5.07;68.28;99228.24;1818968;75;20962;-62
2021/03/18 11:47:09;;;;;;;18.75;8.83;;;;;;;4.99;68.26;99224.49;1824052;75;21483;-61
2021/03/18 11:49:39;;;;;;;16.48;8.15;;;;;;;4.97;69.12;99234.84;1818717;75;22256;-62
2021/03/18 11:52:07;;;;;;;16.12;9.65;;;;;;;4.92;67.94;99235.47;1821189;75;21505;-60
2021/03/18 11:54:35;;;;;;;16.50;8.55;;;;;;;4.96;68.62;99229.09;1826664;75;20938;-60
2021/03/18 11:57:05;;;;;;;12.60;8.28;;;;;;;4.99;68.50;99231.64;1822514;75;21562;-61
2021/03/18 11:59:34;;;;;;;13.25;7.97;;;;;;;5.01;68.83;99227.13;1821871;75;20989;-62
2021/03/18 12:02:05;;;;;;;17.85;7.90;;;;;;;5.00;68.38;99230.70;1817479;75;21191;-63
2021/03/18 12:04:34;;;;;;;18.57;9.25;;;;;;;5.04;69.63;99232.34;1822090;75;21159;-61
2021/03/18 12:07:04;;;;;;;20.23;9.73;;;;;;;5.04;71.00;99232.34;1820081;75;20982;-61